ES-0224 weather

Campo de Vuelo de Pozorrubio
Pozorrubio, Cuenca, Spain

Public forecast

Using degrees Celsius for public forecast. Weather courtesy of forecast.io.

Closest aviation weather report (METAR) to Campo de Vuelo de Pozorrubio

Closest report is Getafe Air Base, 45.2 nm (83.8 km) NW. Retrieved 2019/10/15 17:00 UTC (40 minutes ago):

LEGT 151700Z 24008KT 210V270 CAVOK 16/04 Q1021

Closest aviation forecast (TAF) to Campo de Vuelo de Pozorrubio

Forecast is more than 12 hours old.

Closest forecast is Getafe Air Base, 45.2 nm (83.8 km) NW. Retrieved 2018/03/28 12:33 UTC (2 years ago):

TAF LEGT 281100Z 2812/2824 24010KT CAVOK PROB40 TEMPO 2814/2818 27015G25KT TEMPO 2820/2824 28008KT